createdAt,value
2023-07-14T00:00:04.164Z,53.4230
2023-07-14T00:01:06.480Z,53.6350
2023-07-14T00:02:08.899Z,53.8180
2023-07-14T00:03:11.130Z,53.9400
2023-07-14T00:04:13.459Z,54.0010
2023-07-14T00:05:15.719Z,54.1010
2023-07-14T00:06:18.021Z,54.0510
2023-07-14T00:07:18.151Z,53.9500
2023-07-14T00:08:18.267Z,53.7520
2023-07-14T00:09:20.571Z,53.8600
2023-07-14T00:10:22.868Z,53.9110
2023-07-14T00:11:25.139Z,53.8140
2023-07-14T00:12:27.342Z,53.7620
2023-07-14T00:13:29.539Z,53.8560
2023-07-14T00:14:31.788Z,53.8810
2023-07-14T00:15:31.906Z,53.9650
2023-07-14T00:16:34.178Z,53.9580
2023-07-14T00:17:36.494Z,53.9920
2023-07-14T00:18:38.630Z,54.0110
2023-07-14T00:19:40.835Z,54.1390
2023-07-14T00:20:43.099Z,54.1810
2023-07-14T00:21:45.385Z,54.2900
2023-07-14T00:22:47.642Z,54.2590
2023-07-14T00:23:49.869Z,54.3490
2023-07-14T00:24:49.979Z,54.1680
2023-07-14T00:25:52.264Z,54.1030
2023-07-14T00:26:54.513Z,54.0650
2023-07-14T00:27:56.809Z,54.0650
2023-07-14T00:28:59.033Z,54.1420
2023-07-14T00:30:01.312Z,54.1670
2023-07-14T00:31:03.587Z,54.2900
2023-07-14T00:32:05.946Z,54.3860
2023-07-14T00:33:06.147Z,54.4590
2023-07-14T00:34:08.356Z,54.4660
2023-07-14T00:35:10.656Z,54.5390
2023-07-14T00:36:12.972Z,54.5970
2023-07-14T00:37:15.319Z,54.6880
2023-07-14T00:38:17.655Z,54.7070
2023-07-14T00:39:17.822Z,54.7530
2023-07-14T00:40:20.139Z,54.7480
2023-07-14T00:41:22.534Z,54.7380
2023-07-14T00:42:24.802Z,54.7060
2023-07-14T00:43:27.108Z,54.7410
2023-07-14T00:44:29.358Z,54.7550
2023-07-14T00:45:29.516Z,54.8860
2023-07-14T00:46:32.038Z,54.8500
2023-07-14T00:47:34.167Z,54.9230
2023-07-14T00:48:36.481Z,54.9230
2023-07-14T00:49:38.764Z,54.9020
2023-07-14T00:50:41.091Z,55.0580
2023-07-14T00:51:41.266Z,55.0600
2023-07-14T00:52:43.585Z,54.9960
2023-07-14T00:53:45.886Z,55.0470
2023-07-14T00:54:48.199Z,55.0870
2023-07-14T00:55:50.499Z,55.1840
2023-07-14T00:56:52.806Z,55.2350
2023-07-14T00:57:52.895Z,55.2160
2023-07-14T00:58:55.236Z,55.3610
2023-07-14T00:59:57.468Z,55.4680
2023-07-14T01:00:59.738Z,55.4890
2023-07-14T01:02:02.210Z,55.5490
2023-07-14T01:03:04.364Z,55.6270
2023-07-14T01:04:06.587Z,55.4700
2023-07-14T01:05:08.914Z,55.4890
2023-07-14T01:06:08.950Z,55.5420
2023-07-14T01:07:11.231Z,55.4770
2023-07-14T01:08:13.531Z,55.4410
2023-07-14T01:09:15.742Z,55.3900
2023-07-14T01:10:17.978Z,55.3540
2023-07-14T01:11:20.244Z,55.2950
2023-07-14T01:12:22.495Z,55.3730
2023-07-14T01:13:24.793Z,55.3430
2023-07-14T01:14:27.037Z,55.5070
2023-07-14T01:15:27.152Z,55.6460
2023-07-14T01:16:27.325Z,55.7140
2023-07-14T01:17:29.620Z,55.7810
2023-07-14T01:18:31.837Z,55.7400
2023-07-14T01:19:34.151Z,55.8720
2023-07-14T01:20:36.404Z,55.9820
2023-07-14T01:21:36.528Z,56.0540
2023-07-14T01:22:38.870Z,56.1560
2023-07-14T01:23:41.063Z,55.9210
2023-07-14T01:24:43.323Z,55.6480
2023-07-14T01:25:45.558Z,55.4390
2023-07-14T01:26:47.795Z,55.0930
2023-07-14T01:27:50.012Z,54.8270
2023-07-14T01:28:52.210Z,54.7340
2023-07-14T01:29:54.481Z,54.4730
2023-07-14T01:30:56.720Z,54.2450
2023-07-14T01:31:59.072Z,54.0520
2023-07-14T01:32:59.094Z,54.1080
2023-07-14T01:34:01.310Z,53.8900
2023-07-14T01:35:03.585Z,53.7740
2023-07-14T01:36:05.803Z,53.6490
2023-07-14T01:37:09.081Z,53.6210
2023-07-14T01:38:10.198Z,53.4860
2023-07-14T01:39:12.395Z,53.4130
2023-07-14T01:40:14.556Z,53.4310
2023-07-14T01:41:16.784Z,53.2780
2023-07-14T01:42:19.056Z,53.2720
2023-07-14T01:43:21.371Z,53.2580
2023-07-14T01:44:21.441Z,53.2700
2023-07-14T01:45:23.726Z,53.1620
2023-07-14T01:46:26.006Z,52.9940
2023-07-14T01:47:28.297Z,52.9070
2023-07-14T01:48:30.559Z,53.0240
2023-07-14T01:49:32.856Z,52.8830
2023-07-14T01:50:35.137Z,52.7890
2023-07-14T01:51:35.247Z,52.7900
2023-07-14T01:52:37.499Z,52.6480
2023-07-14T01:53:39.701Z,52.7970
2023-07-14T01:54:41.943Z,52.8450
2023-07-14T01:55:44.186Z,52.8160
2023-07-14T01:56:46.409Z,52.8460
2023-07-14T01:57:48.693Z,52.6120
2023-07-14T01:58:50.933Z,52.8590
2023-07-14T01:59:53.172Z,52.8210
2023-07-14T02:00:55.449Z,52.4930
2023-07-14T02:01:57.620Z,52.4390
2023-07-14T02:02:59.855Z,52.3710
2023-07-14T02:03:59.886Z,52.4000
2023-07-14T02:05:02.081Z,52.5230
2023-07-14T02:06:04.333Z,52.5120
2023-07-14T02:07:06.543Z,52.4940
2023-07-14T02:08:08.760Z,52.3380
2023-07-14T02:09:10.996Z,52.3880
2023-07-14T02:10:13.205Z,52.4150
2023-07-14T02:11:15.441Z,52.2770
2023-07-14T02:12:17.617Z,52.3540
2023-07-14T02:13:19.827Z,52.3460
2023-07-14T02:14:22.061Z,52.3490
2023-07-14T02:15:24.304Z,52.1860
2023-07-14T02:16:26.490Z,52.2970
2023-07-14T02:17:28.733Z,52.5450
2023-07-14T02:18:28.749Z,52.2860
2023-07-14T02:19:30.926Z,52.2080
2023-07-14T02:20:33.112Z,52.1080
2023-07-14T02:21:35.356Z,52.0830
2023-07-14T02:22:37.536Z,51.9770
2023-07-14T02:23:39.753Z,51.9510
2023-07-14T02:24:41.969Z,51.9870
2023-07-14T02:25:44.255Z,51.8910
2023-07-14T02:26:46.504Z,51.9230
2023-07-14T02:27:48.768Z,52.1280
2023-07-14T02:28:51.021Z,51.9540
2023-07-14T02:29:51.098Z,51.9230
2023-07-14T02:30:53.385Z,51.9890
2023-07-14T02:31:55.604Z,52.0660
2023-07-14T02:32:57.866Z,51.9330
2023-07-14T02:34:00.046Z,52.0660
2023-07-14T02:35:02.325Z,51.8980
2023-07-14T02:36:04.594Z,51.8750
2023-07-14T02:37:06.905Z,51.8880
2023-07-14T02:38:09.123Z,52.1880
2023-07-14T02:39:11.311Z,51.9300
2023-07-14T02:40:13.546Z,51.9880
2023-07-14T02:41:13.833Z,51.9360
2023-07-14T02:42:15.820Z,51.8220
2023-07-14T02:43:18.014Z,51.7680
2023-07-14T02:44:20.165Z,51.7550
2023-07-14T02:45:22.310Z,51.7740
2023-07-14T02:47:11.914Z,51.8030
2023-07-14T02:48:14.116Z,51.6780
2023-07-14T02:49:16.245Z,51.6460
2023-07-14T02:50:18.489Z,51.5920
2023-07-14T02:51:18.535Z,51.5550
2023-07-14T02:52:20.746Z,51.6940
2023-07-14T02:53:22.983Z,51.6310
2023-07-14T02:54:25.233Z,51.6440
2023-07-14T02:55:27.480Z,51.5560
2023-07-14T02:56:29.740Z,51.5500
2023-07-14T02:57:31.913Z,51.6540
2023-07-14T02:58:34.214Z,51.5500
2023-07-14T02:59:36.332Z,51.5130
2023-07-14T03:00:38.458Z,51.5130
2023-07-14T03:01:40.731Z,51.4840
2023-07-14T03:02:42.931Z,51.4530
2023-07-14T03:03:45.214Z,51.4180
2023-07-14T03:04:47.297Z,51.3910
2023-07-14T03:05:49.520Z,51.3850
2023-07-14T03:06:49.590Z,51.3320
2023-07-14T03:07:51.763Z,51.3440
2023-07-14T03:08:53.996Z,51.3000
2023-07-14T03:09:56.133Z,51.3010
2023-07-14T03:10:58.345Z,51.2880
2023-07-14T03:12:00.547Z,51.2180
2023-07-14T03:13:02.717Z,51.1850
2023-07-14T03:14:04.943Z,51.1850
2023-07-14T03:15:07.083Z,51.1250
2023-07-14T03:16:09.300Z,51.1130
2023-07-14T03:17:11.447Z,51.0420
2023-07-14T03:18:13.639Z,51.0820
2023-07-14T03:19:15.826Z,51.0490
2023-07-14T03:20:17.907Z,51.0550
2023-07-14T03:21:20.051Z,51.0630
2023-07-14T03:22:22.203Z,51.0110
2023-07-14T03:23:24.303Z,50.9990
2023-07-14T03:24:26.517Z,50.9920
2023-07-14T03:25:28.607Z,50.9890
2023-07-14T03:26:28.584Z,50.9780
2023-07-14T03:27:30.751Z,50.9990
2023-07-14T03:28:32.941Z,51.0240
2023-07-14T03:29:35.158Z,50.9890
2023-07-14T03:30:37.332Z,51.0010
2023-07-14T03:31:39.570Z,50.9580
2023-07-14T03:32:41.751Z,50.9700
2023-07-14T03:33:43.958Z,50.9250
2023-07-14T03:34:46.174Z,50.9430
2023-07-14T03:35:48.325Z,50.9370
2023-07-14T03:36:50.510Z,50.9540
2023-07-14T03:37:52.751Z,50.9870
2023-07-14T03:38:54.979Z,50.9100
2023-07-14T03:39:57.242Z,50.8770
2023-07-14T03:40:59.427Z,50.8190
2023-07-14T03:42:01.659Z,50.7880
2023-07-14T03:43:01.756Z,50.8010
2023-07-14T03:44:03.937Z,50.7660
2023-07-14T03:45:06.201Z,50.8010
2023-07-14T03:46:08.454Z,50.7820
2023-07-14T03:47:10.572Z,50.7350
2023-07-14T03:48:12.811Z,50.7240
2023-07-14T03:49:15.063Z,50.7220
2023-07-14T03:50:17.459Z,50.6960
2023-07-14T03:51:19.547Z,50.6890
2023-07-14T03:52:21.765Z,50.6900
2023-07-14T03:53:24.001Z,50.6590
2023-07-14T03:54:26.189Z,50.6400
2023-07-14T03:55:26.262Z,50.5950
2023-07-14T03:56:28.495Z,50.5950
2023-07-14T03:57:30.704Z,50.6530
2023-07-14T03:58:32.952Z,50.6340
2023-07-14T03:59:35.119Z,50.6400
2023-07-14T04:00:37.304Z,50.6200
2023-07-14T04:01:39.497Z,50.6590
2023-07-14T04:02:41.731Z,50.6400
2023-07-14T04:03:43.904Z,50.6340
2023-07-14T04:04:46.029Z,50.6610
2023-07-14T04:05:48.319Z,50.6300
2023-07-14T04:06:50.389Z,50.6050
2023-07-14T04:07:52.530Z,50.5790
2023-07-14T04:08:54.741Z,50.6050
2023-07-14T04:09:56.936Z,50.5890
2023-07-14T04:10:59.156Z,50.5640
2023-07-14T04:12:01.319Z,50.5290
2023-07-14T04:13:03.506Z,50.5760
2023-07-14T04:14:05.713Z,50.5580
2023-07-14T04:15:09.900Z,50.5890
2023-07-14T04:16:10.230Z,50.4770
2023-07-14T04:17:10.177Z,50.1720
2023-07-14T04:18:12.416Z,49.9030
2023-07-14T04:19:14.602Z,49.9560
2023-07-14T04:20:16.783Z,49.8900
2023-07-14T04:21:19.003Z,49.9560
2023-07-14T04:22:24.491Z,50.0250
2023-07-14T04:23:23.522Z,50.2140
2023-07-14T04:24:25.564Z,50.2210
2023-07-14T04:25:27.786Z,50.2330
2023-07-14T04:26:29.995Z,50.2790
2023-07-14T04:27:32.147Z,50.3360
2023-07-14T04:28:34.322Z,50.1080
2023-07-14T04:29:36.613Z,49.7820
2023-07-14T04:30:38.774Z,49.3530
2023-07-14T04:31:38.900Z,49.2840
2023-07-14T04:32:41.055Z,49.6200
2023-07-14T04:33:43.188Z,49.9980
2023-07-14T04:34:45.433Z,50.4290
2023-07-14T04:35:47.685Z,50.7940
2023-07-14T04:36:49.980Z,51.1050
2023-07-14T04:37:52.206Z,51.3670
2023-07-14T04:38:54.401Z,51.6520
2023-07-14T04:39:56.669Z,51.8310
2023-07-14T04:40:58.943Z,52.0920
2023-07-14T04:42:01.238Z,52.3330
2023-07-14T04:43:01.412Z,52.5450
2023-07-14T04:44:03.693Z,52.7320
2023-07-14T04:45:06.030Z,52.8930
2023-07-14T04:46:08.378Z,52.9780
2023-07-14T04:47:10.534Z,53.0300
2023-07-14T04:48:12.764Z,53.1090
2023-07-14T04:49:15.069Z,53.1510
2023-07-14T04:50:15.202Z,53.2650
2023-07-14T04:51:17.494Z,53.3180
2023-07-14T04:52:19.829Z,53.2720
2023-07-14T04:53:22.058Z,53.3240
2023-07-14T04:54:24.330Z,53.3000
2023-07-14T04:55:26.554Z,53.2660
2023-07-14T04:56:28.852Z,53.3430
2023-07-14T04:57:31.138Z,53.3430
2023-07-14T04:58:33.378Z,53.4080
2023-07-14T04:59:35.653Z,53.4210
2023-07-14T05:00:37.893Z,53.4130
2023-07-14T05:01:40.115Z,53.4190
2023-07-14T05:02:42.409Z,53.4440
2023-07-14T05:03:44.663Z,53.4630
2023-07-14T05:05:00.827Z,53.4860
2023-07-14T05:05:49.125Z,53.5630
2023-07-14T05:06:49.258Z,53.6340
2023-07-14T05:07:51.641Z,53.6660
2023-07-14T05:08:53.761Z,53.6580
2023-07-14T05:09:56.071Z,53.6710
2023-07-14T05:10:58.384Z,53.7210
2023-07-14T05:12:00.699Z,53.7080
2023-07-14T05:13:03.120Z,53.7130
2023-07-14T05:14:03.152Z,53.7130
2023-07-14T05:15:05.481Z,53.7740
2023-07-14T05:17:31.791Z,53.8990
2023-07-14T05:18:34.046Z,53.9300
2023-07-14T05:19:36.213Z,53.8920
2023-07-14T05:20:38.491Z,53.8590
2023-07-14T05:21:38.608Z,53.8470
2023-07-14T05:22:40.877Z,53.8120
2023-07-14T05:23:43.102Z,53.8870
2023-07-14T05:24:45.303Z,53.8940
2023-07-14T05:25:47.545Z,53.8440
2023-07-14T05:26:49.777Z,53.9180
2023-07-14T05:27:52.017Z,53.9230
2023-07-14T05:28:54.273Z,53.9080
2023-07-14T05:29:56.500Z,53.8180
2023-07-14T05:30:56.604Z,53.7550
2023-07-14T05:31:58.738Z,53.6950
2023-07-14T05:33:01.036Z,53.6570
2023-07-14T05:34:03.170Z,53.7070
2023-07-14T05:35:05.324Z,53.7530
2023-07-14T05:36:07.551Z,53.7490
2023-07-14T05:37:09.692Z,53.8690
2023-07-14T05:38:11.901Z,53.9010
2023-07-14T05:39:14.195Z,53.9190
2023-07-14T05:40:16.419Z,53.9470
2023-07-14T05:41:18.660Z,53.9430
2023-07-14T05:42:20.913Z,53.9100
2023-07-14T05:43:23.158Z,53.9290
2023-07-14T05:44:25.409Z,54.0000
2023-07-14T05:45:25.474Z,53.9780
2023-07-14T05:46:28.272Z,53.9780
2023-07-14T05:47:30.054Z,54.0050
2023-07-14T05:48:32.280Z,54.0050
2023-07-14T05:49:34.543Z,54.0050
2023-07-14T05:50:36.813Z,53.9920
2023-07-14T05:51:39.036Z,54.0110
2023-07-14T05:52:41.238Z,54.3920
2023-07-14T05:53:43.490Z,55.0710
2023-07-14T05:54:43.722Z,55.4360
2023-07-14T05:55:45.795Z,55.1800
2023-07-14T05:56:48.026Z,55.1210
2023-07-14T05:57:50.271Z,55.2060
2023-07-14T05:58:52.512Z,55.2100
2023-07-14T05:59:54.770Z,55.0360
2023-07-14T06:00:57.069Z,54.8630
2023-07-14T06:01:59.262Z,54.5040
2023-07-14T06:03:01.584Z,54.8300
2023-07-14T06:04:03.999Z,54.5720
2023-07-14T06:05:03.997Z,54.3620
2023-07-14T06:06:06.270Z,54.6520
2023-07-14T06:07:08.554Z,54.3980
2023-07-14T06:08:10.807Z,54.2280
2023-07-14T06:09:13.093Z,54.0500
2023-07-14T06:10:15.365Z,54.0790
2023-07-14T06:11:17.618Z,53.8220
2023-07-14T06:12:17.743Z,53.6770
2023-07-14T06:13:19.980Z,53.5380
2023-07-14T06:14:23.806Z,53.5090
2023-07-14T06:15:24.472Z,53.7550
2023-07-14T06:16:26.736Z,53.6420
2023-07-14T06:17:29.068Z,53.5200
2023-07-14T06:18:31.270Z,53.2280
2023-07-14T06:19:33.541Z,52.9080
2023-07-14T06:20:35.811Z,53.2240
2023-07-14T06:21:35.888Z,53.5180
2023-07-14T06:22:38.141Z,53.3630
2023-07-14T06:23:40.343Z,53.4390
2023-07-14T06:24:42.587Z,53.2930
2023-07-14T06:25:45.005Z,53.2280
2023-07-14T06:26:47.117Z,53.4190
2023-07-14T06:27:49.389Z,53.1260
2023-07-14T06:28:51.655Z,53.3520
2023-07-14T06:29:51.788Z,52.9880
2023-07-14T06:30:54.148Z,53.0410
2023-07-14T06:31:56.351Z,52.9930
2023-07-14T06:32:58.643Z,53.0370
2023-07-14T06:34:00.911Z,52.8440
2023-07-14T06:35:03.213Z,53.0300
2023-07-14T06:36:05.438Z,52.8610
2023-07-14T06:37:07.618Z,52.7880
2023-07-14T06:38:09.869Z,52.8440
2023-07-14T06:39:12.071Z,52.8070
2023-07-14T06:40:46.824Z,52.9630
2023-07-14T06:41:49.007Z,53.0700
2023-07-14T06:42:51.195Z,52.9850
2023-07-14T06:43:53.401Z,52.8930
2023-07-14T06:44:55.564Z,53.2740
2023-07-14T06:45:57.740Z,53.2720
2023-07-14T06:47:00.095Z,53.0400
2023-07-14T06:48:02.117Z,53.0110
2023-07-14T06:49:19.197Z,52.8610
2023-07-14T06:50:04.256Z,53.1400
2023-07-14T06:51:06.474Z,53.3370
2023-07-14T06:52:08.596Z,53.1160
2023-07-14T06:53:10.750Z,53.0830
2023-07-14T06:54:12.961Z,53.0880
2023-07-14T06:55:15.165Z,53.0540
2023-07-14T06:56:17.287Z,53.1450
2023-07-14T06:57:17.366Z,53.2180
2023-07-14T06:58:19.544Z,53.1410
2023-07-14T06:59:21.754Z,53.2640
2023-07-14T07:00:23.931Z,53.1200
2023-07-14T07:01:26.164Z,53.0070
2023-07-14T07:02:28.347Z,52.7840
2023-07-14T07:03:30.519Z,52.9070
2023-07-14T07:04:32.676Z,52.8590
2023-07-14T07:05:34.918Z,52.8200
2023-07-14T07:06:37.152Z,53.2590
2023-07-14T07:07:39.359Z,53.1930
2023-07-14T07:08:41.442Z,53.1090
2023-07-14T07:09:43.641Z,53.1800
2023-07-14T07:10:45.840Z,53.2700
2023-07-14T07:11:48.082Z,53.1150
2023-07-14T07:12:48.154Z,53.1630
2023-07-14T07:13:50.320Z,53.0600
2023-07-14T07:14:52.518Z,53.2400
2023-07-14T07:15:54.742Z,53.0480
2023-07-14T07:16:56.992Z,53.3360
2023-07-14T07:17:59.239Z,53.1900
2023-07-14T07:19:01.369Z,53.3050
2023-07-14T07:20:03.581Z,53.2470
2023-07-14T07:21:05.787Z,53.2390
2023-07-14T07:22:08.023Z,53.3750
2023-07-14T07:23:10.255Z,53.6430
2023-07-14T07:24:12.370Z,53.4880
2023-07-14T07:25:14.559Z,53.3940
2023-07-14T07:26:16.771Z,53.2980
2023-07-14T07:27:18.983Z,53.3820
2023-07-14T07:28:21.237Z,53.4790
2023-07-14T07:29:21.277Z,53.7050
2023-07-14T07:30:23.523Z,53.7050
2023-07-14T07:31:25.762Z,53.6630
2023-07-14T07:32:28.049Z,53.5410
2023-07-14T07:33:30.221Z,53.2380
2023-07-14T07:34:32.437Z,53.2560
2023-07-14T07:35:34.654Z,53.6560
2023-07-14T07:36:36.902Z,53.6120
2023-07-14T07:37:39.129Z,53.7020
2023-07-14T07:38:41.310Z,53.6670
2023-07-14T07:39:43.451Z,53.4930
2023-07-14T07:40:45.615Z,53.4990
2023-07-14T07:41:47.794Z,53.5670
2023-07-14T07:42:50.108Z,53.7090
2023-07-14T07:43:50.108Z,53.5480
2023-07-14T07:44:52.333Z,53.6070
2023-07-14T07:45:54.621Z,53.6300
2023-07-14T07:46:56.850Z,53.7260
2023-07-14T07:47:59.167Z,53.6870
2023-07-14T07:49:01.481Z,53.7520
2023-07-14T07:50:03.615Z,54.0130
2023-07-14T07:51:05.886Z,54.0840
2023-07-14T07:52:08.085Z,53.8820
2023-07-14T07:53:10.337Z,53.9220
2023-07-14T07:54:10.434Z,53.7800
2023-07-14T07:55:12.584Z,53.9940
2023-07-14T07:56:14.945Z,54.0930
2023-07-14T07:57:16.948Z,54.1920
2023-07-14T07:58:19.131Z,54.2070
2023-07-14T07:59:21.372Z,53.9290
2023-07-14T08:00:23.549Z,53.7490
2023-07-14T08:01:25.831Z,54.0260
2023-07-14T08:02:28.072Z,53.7280
2023-07-14T08:03:30.388Z,53.7140
2023-07-14T08:04:32.483Z,53.6700
2023-07-14T08:05:34.664Z,53.6580
2023-07-14T08:06:36.903Z,53.8380
2023-07-14T08:07:39.151Z,53.8620
2023-07-14T08:08:41.408Z,53.7060
2023-07-14T08:09:41.544Z,53.7740
2023-07-14T08:10:43.696Z,53.8970
2023-07-14T08:11:45.924Z,53.7610
2023-07-14T08:12:48.142Z,53.7050
2023-07-14T08:13:50.299Z,54.1970
2023-07-14T08:14:52.560Z,54.1740
2023-07-14T08:15:54.795Z,54.0060
2023-07-14T08:16:56.954Z,54.1090
2023-07-14T08:17:59.185Z,53.9340
2023-07-14T08:19:01.407Z,54.0670
2023-07-14T08:20:03.625Z,53.9050
2023-07-14T08:21:05.848Z,53.7830
2023-07-14T08:22:05.967Z,53.9680
2023-07-14T08:23:08.277Z,53.8860
2023-07-14T08:24:10.557Z,53.9200
2023-07-14T08:25:12.734Z,54.0880
2023-07-14T08:26:15.285Z,54.3120
2023-07-14T08:27:17.176Z,54.3500
2023-07-14T08:28:19.424Z,53.9260
2023-07-14T08:29:21.644Z,54.1460
2023-07-14T08:30:23.890Z,54.1090
2023-07-14T08:31:26.135Z,53.8670
2023-07-14T08:32:28.354Z,53.7710
2023-07-14T08:33:30.547Z,53.7580
2023-07-14T08:34:30.549Z,53.8420
2023-07-14T08:35:32.769Z,53.8670
2023-07-14T08:36:34.942Z,53.8550
2023-07-14T08:37:37.168Z,53.7540
2023-07-14T08:38:39.447Z,53.7820
2023-07-14T08:39:41.739Z,53.8530
2023-07-14T08:40:43.957Z,53.7290
2023-07-14T08:41:46.183Z,53.7460
2023-07-14T08:42:48.457Z,53.8890
2023-07-14T08:43:50.675Z,53.7460
2023-07-14T08:44:52.909Z,53.8490
2023-07-14T08:45:53.077Z,53.8790
2023-07-14T08:46:55.320Z,53.9930
2023-07-14T08:47:57.650Z,53.8780
2023-07-14T08:48:59.808Z,53.8900
2023-07-14T08:50:02.032Z,53.9490
2023-07-14T08:51:04.327Z,53.8960
2023-07-14T08:52:06.522Z,53.9090
2023-07-14T08:53:08.754Z,53.8610
2023-07-14T08:54:11.011Z,53.9010
2023-07-14T08:55:11.153Z,53.9310
2023-07-14T08:56:13.577Z,53.8600
2023-07-14T08:57:15.681Z,54.0720
2023-07-14T08:58:17.933Z,54.1590
2023-07-14T08:59:20.254Z,53.8480
2023-07-14T09:00:22.524Z,53.7930
2023-07-14T09:01:24.874Z,53.9110
2023-07-14T09:02:27.065Z,53.8980
2023-07-14T09:03:27.130Z,53.9720
2023-07-14T09:04:29.363Z,54.0250
2023-07-14T09:05:31.627Z,54.1930
2023-07-14T09:06:33.897Z,54.2330
2023-07-14T09:07:36.124Z,53.9940
2023-07-14T09:08:38.353Z,53.9670
2023-07-14T09:09:40.649Z,54.2060
2023-07-14T09:10:42.925Z,54.0780
2023-07-14T09:11:45.237Z,54.1030
2023-07-14T09:12:45.339Z,54.0190
2023-07-14T09:13:47.570Z,54.2890
2023-07-14T09:14:49.780Z,54.3470
2023-07-14T09:15:52.113Z,54.3350
2023-07-14T09:16:54.436Z,54.4150
2023-07-14T09:17:56.674Z,54.5000
2023-07-14T09:18:56.786Z,54.2780
2023-07-14T09:19:59.049Z,54.2530
2023-07-14T09:20:59.148Z,54.5040
2023-07-14T09:22:01.426Z,54.3720
2023-07-14T09:23:03.678Z,54.5560
2023-07-14T09:24:05.904Z,54.3410
2023-07-14T09:25:08.116Z,54.5310
2023-07-14T09:26:10.458Z,54.2570
2023-07-14T09:28:38.487Z,54.7150
2023-07-14T09:29:40.523Z,54.5370
2023-07-14T09:30:42.621Z,54.5330
2023-07-14T09:31:43.762Z,54.4950
2023-07-14T09:32:44.803Z,54.3830
2023-07-14T09:33:46.996Z,54.3390
2023-07-14T09:34:49.141Z,54.6530
2023-07-14T09:35:51.301Z,54.7110
2023-07-14T09:36:53.442Z,54.3400
2023-07-14T09:37:55.601Z,54.4300
2023-07-14T09:38:57.773Z,54.4920
2023-07-14T09:39:59.931Z,54.4660
2023-07-14T09:41:02.090Z,54.4920
2023-07-14T09:42:04.327Z,54.5000
2023-07-14T09:43:06.384Z,54.5190
2023-07-14T09:44:08.699Z,54.5150
2023-07-14T09:45:10.850Z,54.3990
2023-07-14T09:46:12.888Z,54.5930
2023-07-14T09:47:15.127Z,54.8360
2023-07-14T09:48:17.271Z,54.8240
2023-07-14T09:49:19.454Z,54.6990
2023-07-14T09:50:21.515Z,54.3870
2023-07-14T09:51:23.688Z,54.2820
2023-07-14T09:52:25.855Z,54.7240
2023-07-14T09:53:28.034Z,54.6270
2023-07-14T09:54:30.207Z,54.6740
2023-07-14T09:55:32.290Z,54.7480
2023-07-14T09:56:32.298Z,54.3770
2023-07-14T09:57:40.332Z,54.3830
2023-07-14T09:58:36.668Z,54.7370
2023-07-14T09:59:38.815Z,54.8850
2023-07-14T10:00:41.143Z,54.9510
2023-07-14T10:01:43.334Z,54.8350
2023-07-14T10:02:45.389Z,54.7700
2023-07-14T10:03:47.600Z,54.9390
2023-07-14T10:04:49.937Z,54.6980
2023-07-14T10:05:52.087Z,54.7050
2023-07-14T10:06:54.332Z,54.7970
2023-07-14T10:07:56.579Z,54.7510
2023-07-14T10:08:58.804Z,54.8610
2023-07-14T10:10:01.004Z,54.7970
2023-07-14T10:11:03.174Z,54.9320
2023-07-14T10:12:05.361Z,54.7890
2023-07-14T10:13:05.414Z,55.0470
2023-07-14T10:14:07.569Z,54.8120
2023-07-14T10:15:09.780Z,54.7810
2023-07-14T10:16:11.922Z,54.5850
2023-07-14T10:17:14.078Z,54.6560
2023-07-14T10:18:16.397Z,54.7680
2023-07-14T10:19:18.549Z,54.6440
2023-07-14T10:20:20.616Z,54.8060
2023-07-14T10:21:22.796Z,54.7220
2023-07-14T10:22:25.028Z,54.8330
2023-07-14T10:23:27.118Z,54.8600
2023-07-14T10:24:29.310Z,54.7220
2023-07-14T10:25:31.533Z,54.7290
2023-07-14T10:26:33.674Z,54.5470
2023-07-14T10:27:35.774Z,54.7560
2023-07-14T10:28:38.038Z,54.6130
2023-07-14T10:29:40.121Z,54.8240
2023-07-14T10:30:42.376Z,54.6490
2023-07-14T10:31:44.508Z,54.7820
2023-07-14T10:32:46.707Z,55.1350
2023-07-14T10:33:49.005Z,54.9890
2023-07-14T10:34:51.150Z,54.8290
2023-07-14T10:35:53.388Z,54.8420
2023-07-14T10:36:55.598Z,54.9900
2023-07-14T10:37:57.796Z,54.8330
2023-07-14T10:39:00.020Z,54.8120
2023-07-14T10:40:02.236Z,54.8190
2023-07-14T10:41:04.394Z,54.9310
2023-07-14T10:42:06.603Z,54.9630
2023-07-14T10:43:08.699Z,55.0200
2023-07-14T10:44:10.910Z,54.9300
2023-07-14T10:45:13.125Z,54.8980
2023-07-14T10:46:15.379Z,55.0780
2023-07-14T10:47:19.554Z,54.9660
2023-07-14T10:48:19.663Z,54.8560
2023-07-14T10:49:21.832Z,54.9930
2023-07-14T10:50:24.009Z,54.7500
2023-07-14T10:51:26.228Z,54.9830
2023-07-14T10:52:28.293Z,54.9450
2023-07-14T10:53:28.399Z,54.5990
2023-07-14T10:54:30.577Z,54.6770
2023-07-14T10:55:32.760Z,54.7170
2023-07-14T10:56:34.967Z,54.6880
2023-07-14T10:57:37.125Z,54.8500
2023-07-14T10:58:39.301Z,54.7390
2023-07-14T10:59:41.535Z,54.7480
2023-07-14T11:00:43.670Z,54.5520
2023-07-14T11:01:45.906Z,54.6170
2023-07-14T11:02:47.996Z,54.6290
2023-07-14T11:03:50.124Z,54.6420
2023-07-14T11:04:52.252Z,54.3890
2023-07-14T11:05:54.371Z,54.2710
2023-07-14T11:06:58.372Z,54.2040
2023-07-14T11:07:58.746Z,54.0900
2023-07-14T11:09:00.951Z,54.1910
2023-07-14T11:10:03.150Z,54.1700
2023-07-14T11:11:05.341Z,54.1450
2023-07-14T11:12:07.578Z,54.3600
2023-07-14T11:13:09.684Z,54.5080
2023-07-14T11:14:11.867Z,54.3600
2023-07-14T11:15:14.064Z,54.3790
2023-07-14T11:16:16.253Z,54.1560
2023-07-14T11:17:18.544Z,54.1670
2023-07-14T11:18:20.622Z,54.2660
2023-07-14T11:19:23.594Z,54.0130
2023-07-14T11:20:24.999Z,54.1160
2023-07-14T11:21:27.187Z,54.0360
2023-07-14T11:22:27.318Z,54.1820
2023-07-14T11:23:29.503Z,54.1760
2023-07-14T11:24:31.749Z,54.0190
2023-07-14T11:25:33.976Z,54.4730
2023-07-14T11:26:36.220Z,54.2200
2023-07-14T11:27:38.581Z,54.2960
2023-07-14T11:28:40.692Z,54.2690
2023-07-14T11:29:42.895Z,54.1390
2023-07-14T11:30:45.161Z,54.1530
2023-07-14T11:31:47.358Z,54.0490
2023-07-14T11:32:49.563Z,53.9920
2023-07-14T11:33:51.690Z,54.0830
2023-07-14T11:34:53.842Z,54.0830
2023-07-14T11:35:55.977Z,54.2070
2023-07-14T11:36:58.089Z,54.1920
2023-07-14T11:38:00.216Z,54.0240
2023-07-14T11:39:02.306Z,53.9140
2023-07-14T11:40:04.428Z,54.1660
2023-07-14T11:41:06.549Z,54.0130
2023-07-14T11:42:08.682Z,53.9690
2023-07-14T11:43:10.848Z,53.5930
2023-07-14T11:44:12.956Z,53.6650
2023-07-14T11:45:15.084Z,53.4760
2023-07-14T11:46:17.300Z,53.4160
2023-07-14T11:47:19.323Z,53.7510
2023-07-14T11:48:21.505Z,53.7720
2023-07-14T11:49:23.675Z,53.5940
2023-07-14T11:50:40.750Z,53.5350
2023-07-14T11:51:27.870Z,53.7370
2023-07-14T11:52:30.032Z,53.6650
2023-07-14T11:53:32.181Z,53.7620
2023-07-14T11:54:34.262Z,53.7370
2023-07-14T11:55:36.356Z,53.5750
2023-07-14T11:56:38.489Z,53.7240
2023-07-14T11:57:40.668Z,53.7620
2023-07-14T11:58:42.777Z,53.7560
2023-07-14T11:59:44.833Z,53.8090
2023-07-14T12:00:46.945Z,53.7540
2023-07-14T12:01:47.064Z,53.7200
2023-07-14T12:02:51.086Z,53.7080
2023-07-14T12:03:51.220Z,53.7200
2023-07-14T12:04:53.340Z,53.6950
2023-07-14T12:05:55.367Z,53.6630
2023-07-14T12:06:57.497Z,53.6040
2023-07-14T12:07:59.624Z,53.6500
2023-07-14T12:09:01.747Z,53.7280
2023-07-14T12:10:03.849Z,53.5370
2023-07-14T12:11:05.984Z,53.5040
2023-07-14T12:12:08.114Z,53.7760
2023-07-14T12:13:10.200Z,53.6650
2023-07-14T12:14:12.301Z,53.6570
2023-07-14T12:15:14.302Z,53.6930
2023-07-14T12:16:16.439Z,53.5690
2023-07-14T12:17:18.482Z,53.5940
2023-07-14T12:18:18.375Z,53.5750
2023-07-14T12:19:20.508Z,53.5820
2023-07-14T12:20:22.618Z,53.6280
2023-07-14T12:21:24.748Z,53.6800
2023-07-14T12:22:26.902Z,53.5100
2023-07-14T12:23:28.978Z,53.4790
2023-07-14T12:24:31.113Z,53.4750
2023-07-14T12:25:33.188Z,53.3660
2023-07-14T12:26:35.301Z,53.1900
2023-07-14T12:27:37.415Z,53.1270
2023-07-14T12:28:37.383Z,53.1400
2023-07-14T12:29:56.093Z,53.2110
2023-07-14T12:30:41.573Z,53.3430
2023-07-14T12:31:43.736Z,53.2780
2023-07-14T12:32:45.862Z,53.3660
2023-07-14T12:33:47.944Z,53.2420